sensor_id;sensor_type;location;lat;lon;timestamp;temperature;humidity
11664;DHT22;72375;59.302;18.204;2023-12-28T00:02:21;-1.60;99.90
11664;DHT22;72375;59.302;18.204;2023-12-28T00:05:08;-1.60;99.90
11664;DHT22;72375;59.302;18.204;2023-12-28T00:07:54;-1.60;99.90
11664;DHT22;72375;59.302;18.204;2023-12-28T00:10:41;-1.60;99.90
11664;DHT22;72375;59.302;18.204;2023-12-28T00:13:27;-1.60;99.90
11664;DHT22;72375;59.302;18.204;2023-12-28T00:16:13;-1.60;99.90
11664;DHT22;72375;59.302;18.204;2023-12-28T00:18:58;-1.70;99.90
11664;DHT22;72375;59.302;18.204;2023-12-28T00:21:47;-1.60;99.90
11664;DHT22;72375;59.302;18.204;2023-12-28T00:24:32;-1.60;99.90
11664;DHT22;72375;59.302;18.204;2023-12-28T00:27:18;-1.60;99.90
11664;DHT22;72375;59.302;18.204;2023-12-28T00:30:05;-1.70;99.90
11664;DHT22;72375;59.302;18.204;2023-12-28T00:32:50;-1.70;99.90
11664;DHT22;72375;59.302;18.204;2023-12-28T00:35:36;-1.60;99.90
11664;DHT22;72375;59.302;18.204;2023-12-28T00:38:23;-1.30;99.90
11664;DHT22;72375;59.302;18.204;2023-12-28T00:41:08;-1.70;99.90
11664;DHT22;72375;59.302;18.204;2023-12-28T00:43:54;-1.70;99.90
11664;DHT22;72375;59.302;18.204;2023-12-28T00:46:39;-1.70;99.90
11664;DHT22;72375;59.302;18.204;2023-12-28T00:49:25;-1.60;99.90
11664;DHT22;72375;59.302;18.204;2023-12-28T00:52:11;-1.80;99.90
11664;DHT22;72375;59.302;18.204;2023-12-28T00:54:58;-1.80;99.90
11664;DHT22;72375;59.302;18.204;2023-12-28T00:57:43;-1.70;99.90
11664;DHT22;72375;59.302;18.204;2023-12-28T01:00:29;-1.80;99.90
11664;DHT22;72375;59.302;18.204;2023-12-28T01:03:15;-1.80;99.90
11664;DHT22;72375;59.302;18.204;2023-12-28T01:06:01;-1.80;99.90
11664;DHT22;72375;59.302;18.204;2023-12-28T01:08:46;-1.80;99.90
11664;DHT22;72375;59.302;18.204;2023-12-28T01:11:33;-1.90;99.90
11664;DHT22;72375;59.302;18.204;2023-12-28T01:14:19;-1.80;99.90
11664;DHT22;72375;59.302;18.204;2023-12-28T01:17:04;-1.90;99.90
11664;DHT22;72375;59.302;18.204;2023-12-28T01:19:50;-1.90;99.90
11664;DHT22;72375;59.302;18.204;2023-12-28T01:22:36;-1.80;99.90
11664;DHT22;72375;59.302;18.204;2023-12-28T01:25:21;-1.80;99.90
11664;DHT22;72375;59.302;18.204;2023-12-28T01:28:08;-1.80;99.90
11664;DHT22;72375;59.302;18.204;2023-12-28T01:30:54;-1.90;99.90
11664;DHT22;72375;59.302;18.204;2023-12-28T01:33:39;-1.80;99.90
11664;DHT22;72375;59.302;18.204;2023-12-28T01:36:26;-1.90;99.90
11664;DHT22;72375;59.302;18.204;2023-12-28T01:39:13;-1.90;99.90
11664;DHT22;72375;59.302;18.204;2023-12-28T01:41:59;-1.90;99.90
11664;DHT22;72375;59.302;18.204;2023-12-28T01:44:47;-1.90;99.90
11664;DHT22;72375;59.302;18.204;2023-12-28T01:47:32;-1.90;99.90
11664;DHT22;72375;59.302;18.204;2023-12-28T01:50:19;-1.40;99.90
11664;DHT22;72375;59.302;18.204;2023-12-28T01:53:08;-1.90;99.90
11664;DHT22;72375;59.302;18.204;2023-12-28T01:55:53;-2.00;99.90
11664;DHT22;72375;59.302;18.204;2023-12-28T01:58:42;-1.30;99.90
11664;DHT22;72375;59.302;18.204;2023-12-28T02:01:29;-1.90;99.90
11664;DHT22;72375;59.302;18.204;2023-12-28T02:04:15;-2.00;99.90
11664;DHT22;72375;59.302;18.204;2023-12-28T02:07:01;-1.90;99.90
11664;DHT22;72375;59.302;18.204;2023-12-28T02:09:46;-2.00;99.90
11664;DHT22;72375;59.302;18.204;2023-12-28T02:12:32;-1.60;99.90
11664;DHT22;72375;59.302;18.204;2023-12-28T02:15:18;-2.00;99.90
11664;DHT22;72375;59.302;18.204;2023-12-28T02:18:09;-1.70;99.90
11664;DHT22;72375;59.302;18.204;2023-12-28T02:20:57;-1.40;99.90
11664;DHT22;72375;59.302;18.204;2023-12-28T02:23:46;-1.90;99.90
11664;DHT22;72375;59.302;18.204;2023-12-28T02:26:34;-2.10;99.90
11664;DHT22;72375;59.302;18.204;2023-12-28T02:29:19;-2.10;99.90
11664;DHT22;72375;59.302;18.204;2023-12-28T02:32:07;-2.00;99.90
11664;DHT22;72375;59.302;18.204;2023-12-28T02:35:02;-2.00;99.90
11664;DHT22;72375;59.302;18.204;2023-12-28T02:37:52;-2.10;99.90
11664;DHT22;72375;59.302;18.204;2023-12-28T02:40:40;-2.10;99.90
11664;DHT22;72375;59.302;18.204;2023-12-28T02:43:27;-2.10;99.90
11664;DHT22;72375;59.302;18.204;2023-12-28T02:46:13;-2.10;99.90
11664;DHT22;72375;59.302;18.204;2023-12-28T02:48:58;-1.80;99.90
11664;DHT22;72375;59.302;18.204;2023-12-28T02:51:44;-2.10;99.90
11664;DHT22;72375;59.302;18.204;2023-12-28T02:54:30;-2.10;99.90
11664;DHT22;72375;59.302;18.204;2023-12-28T02:57:16;-2.10;99.90
11664;DHT22;72375;59.302;18.204;2023-12-28T03:00:05;-2.00;99.90
11664;DHT22;72375;59.302;18.204;2023-12-28T03:02:53;-2.10;99.90
11664;DHT22;72375;59.302;18.204;2023-12-28T03:05:38;-1.90;99.90
11664;DHT22;72375;59.302;18.204;2023-12-28T03:08:25;-2.10;99.90
11664;DHT22;72375;59.302;18.204;2023-12-28T03:11:11;-2.10;99.90
11664;DHT22;72375;59.302;18.204;2023-12-28T03:13:56;-2.10;99.90
11664;DHT22;72375;59.302;18.204;2023-12-28T03:16:43;-2.10;99.90
11664;DHT22;72375;59.302;18.204;2023-12-28T03:19:29;-2.10;99.90
11664;DHT22;72375;59.302;18.204;2023-12-28T03:22:14;-2.10;99.90
11664;DHT22;72375;59.302;18.204;2023-12-28T03:25:01;-2.10;99.90
11664;DHT22;72375;59.302;18.204;2023-12-28T03:27:47;-2.10;99.90
11664;DHT22;72375;59.302;18.204;2023-12-28T03:30:32;-2.10;99.90
11664;DHT22;72375;59.302;18.204;2023-12-28T03:33:19;-2.10;99.90
11664;DHT22;72375;59.302;18.204;2023-12-28T03:36:06;-2.10;99.90
11664;DHT22;72375;59.302;18.204;2023-12-28T03:38:51;-2.10;99.90
11664;DHT22;72375;59.302;18.204;2023-12-28T03:41:37;-2.10;99.90
11664;DHT22;72375;59.302;18.204;2023-12-28T03:44:23;-1.90;99.90
11664;DHT22;72375;59.302;18.204;2023-12-28T03:47:09;-2.00;99.90
11664;DHT22;72375;59.302;18.204;2023-12-28T03:49:56;-2.00;99.90
11664;DHT22;72375;59.302;18.204;2023-12-28T03:52:42;-2.10;99.90
11664;DHT22;72375;59.302;18.204;2023-12-28T03:55:27;-2.10;99.90
11664;DHT22;72375;59.302;18.204;2023-12-28T03:58:13;-2.00;99.90
11664;DHT22;72375;59.302;18.204;2023-12-28T04:00:59;-2.00;99.90
11664;DHT22;72375;59.302;18.204;2023-12-28T04:03:44;-2.00;99.90
11664;DHT22;72375;59.302;18.204;2023-12-28T04:06:31;-2.00;99.90
11664;DHT22;72375;59.302;18.204;2023-12-28T04:09:17;-2.00;99.90
11664;DHT22;72375;59.302;18.204;2023-12-28T04:12:04;-2.00;99.90
11664;DHT22;72375;59.302;18.204;2023-12-28T04:14:49;-2.00;99.90
11664;DHT22;72375;59.302;18.204;2023-12-28T04:17:35;-1.20;99.90
11664;DHT22;72375;59.302;18.204;2023-12-28T04:20:20;-2.00;99.90
11664;DHT22;72375;59.302;18.204;2023-12-28T04:23:07;-2.00;99.90
11664;DHT22;72375;59.302;18.204;2023-12-28T04:25:53;-2.00;99.90
11664;DHT22;72375;59.302;18.204;2023-12-28T04:28:39;-2.00;99.90
11664;DHT22;72375;59.302;18.204;2023-12-28T04:31:24;-2.00;99.90
11664;DHT22;72375;59.302;18.204;2023-12-28T04:34:10;-1.60;99.90
11664;DHT22;72375;59.302;18.204;2023-12-28T04:36:55;-1.70;99.90
11664;DHT22;72375;59.302;18.204;2023-12-28T04:39:42;-1.90;99.90
11664;DHT22;72375;59.302;18.204;2023-12-28T04:42:28;-1.90;99.90
11664;DHT22;72375;59.302;18.204;2023-12-28T04:45:14;-1.90;99.90
11664;DHT22;72375;59.302;18.204;2023-12-28T04:47:59;-1.90;99.90
11664;DHT22;72375;59.302;18.204;2023-12-28T04:50:45;-1.90;99.90
11664;DHT22;72375;59.302;18.204;2023-12-28T04:53:31;-1.90;99.90
11664;DHT22;72375;59.302;18.204;2023-12-28T04:56:20;-1.80;99.90
11664;DHT22;72375;59.302;18.204;2023-12-28T04:59:05;-1.20;99.90
11664;DHT22;72375;59.302;18.204;2023-12-28T05:01:51;-1.80;99.90
11664;DHT22;72375;59.302;18.204;2023-12-28T05:04:37;-1.80;99.90
11664;DHT22;72375;59.302;18.204;2023-12-28T05:07:23;-1.90;99.90
11664;DHT22;72375;59.302;18.204;2023-12-28T05:10:09;-1.80;99.90
11664;DHT22;72375;59.302;18.204;2023-12-28T05:12:56;-1.60;99.90
11664;DHT22;72375;59.302;18.204;2023-12-28T05:15:41;-1.80;99.90
11664;DHT22;72375;59.302;18.204;2023-12-28T05:18:27;-1.80;99.90
11664;DHT22;72375;59.302;18.204;2023-12-28T05:21:13;-1.50;99.90
11664;DHT22;72375;59.302;18.204;2023-12-28T05:23:59;-1.60;99.90
11664;DHT22;72375;59.302;18.204;2023-12-28T05:26:44;-1.80;99.90
11664;DHT22;72375;59.302;18.204;2023-12-28T05:29:31;-1.80;99.90
11664;DHT22;72375;59.302;18.204;2023-12-28T05:32:17;-1.80;99.90
11664;DHT22;72375;59.302;18.204;2023-12-28T05:35:03;-1.70;99.90
11664;DHT22;72375;59.302;18.204;2023-12-28T05:37:49;-1.70;99.90
11664;DHT22;72375;59.302;18.204;2023-12-28T05:40:35;-1.70;99.90
11664;DHT22;72375;59.302;18.204;2023-12-28T05:43:21;-1.70;99.90
11664;DHT22;72375;59.302;18.204;2023-12-28T05:46:08;-1.70;99.90
11664;DHT22;72375;59.302;18.204;2023-12-28T05:48:53;-1.70;99.90
11664;DHT22;72375;59.302;18.204;2023-12-28T05:51:39;-1.70;99.90
11664;DHT22;72375;59.302;18.204;2023-12-28T05:54:25;-1.60;99.90
11664;DHT22;72375;59.302;18.204;2023-12-28T05:57:11;-1.60;99.90
11664;DHT22;72375;59.302;18.204;2023-12-28T05:59:57;-1.30;99.90
11664;DHT22;72375;59.302;18.204;2023-12-28T06:02:44;-1.60;99.90
11664;DHT22;72375;59.302;18.204;2023-12-28T06:05:30;-1.50;99.90
11664;DHT22;72375;59.302;18.204;2023-12-28T06:08:16;-1.50;99.90
11664;DHT22;72375;59.302;18.204;2023-12-28T06:11:01;-1.50;99.90
11664;DHT22;72375;59.302;18.204;2023-12-28T06:13:47;-0.70;99.90
11664;DHT22;72375;59.302;18.204;2023-12-28T06:16:33;-1.00;99.90
11664;DHT22;72375;59.302;18.204;2023-12-28T06:19:20;-1.10;99.90
11664;DHT22;72375;59.302;18.204;2023-12-28T06:22:06;-1.40;99.90
11664;DHT22;72375;59.302;18.204;2023-12-28T06:24:51;-1.00;99.90
11664;DHT22;72375;59.302;18.204;2023-12-28T06:27:37;-1.30;99.90
11664;DHT22;72375;59.302;18.204;2023-12-28T06:30:23;-1.10;99.90
11664;DHT22;72375;59.302;18.204;2023-12-28T06:33:09;-1.30;99.90
11664;DHT22;72375;59.302;18.204;2023-12-28T06:35:56;-1.20;99.90
11664;DHT22;72375;59.302;18.204;2023-12-28T06:38:42;-1.30;99.90
11664;DHT22;72375;59.302;18.204;2023-12-28T06:41:27;-1.20;99.90
11664;DHT22;72375;59.302;18.204;2023-12-28T06:44:13;-1.20;99.90
11664;DHT22;72375;59.302;18.204;2023-12-28T06:46:59;-0.50;99.90
11664;DHT22;72375;59.302;18.204;2023-12-28T06:49:44;-1.10;99.90
11664;DHT22;72375;59.302;18.204;2023-12-28T06:52:32;-1.10;99.90
11664;DHT22;72375;59.302;18.204;2023-12-28T06:55:18;-0.90;99.90
11664;DHT22;72375;59.302;18.204;2023-12-28T06:58:03;-1.10;99.90
11664;DHT22;72375;59.302;18.204;2023-12-28T07:00:51;-0.90;99.90
11664;DHT22;72375;59.302;18.204;2023-12-28T07:03:36;-1.00;99.90
11664;DHT22;72375;59.302;18.204;2023-12-28T07:06:22;-0.90;99.90
11664;DHT22;72375;59.302;18.204;2023-12-28T07:09:09;-1.00;99.90
11664;DHT22;72375;59.302;18.204;2023-12-28T07:11:55;-1.00;99.90
11664;DHT22;72375;59.302;18.204;2023-12-28T07:14:40;-1.00;99.90
11664;DHT22;72375;59.302;18.204;2023-12-28T07:17:26;-0.90;99.90
11664;DHT22;72375;59.302;18.204;2023-12-28T07:20:12;-0.80;99.90
11664;DHT22;72375;59.302;18.204;2023-12-28T07:22:58;-0.80;99.90
11664;DHT22;72375;59.302;18.204;2023-12-28T07:25:45;-0.80;99.90
11664;DHT22;72375;59.302;18.204;2023-12-28T07:28:30;-0.70;99.90
11664;DHT22;72375;59.302;18.204;2023-12-28T07:31:23;-0.70;99.90
11664;DHT22;72375;59.302;18.204;2023-12-28T07:34:08;-0.60;99.90
11664;DHT22;72375;59.302;18.204;2023-12-28T07:36:55;-0.60;99.90
11664;DHT22;72375;59.302;18.204;2023-12-28T07:39:40;-0.50;99.90
11664;DHT22;72375;59.302;18.204;2023-12-28T07:42:28;-0.50;99.90
11664;DHT22;72375;59.302;18.204;2023-12-28T07:45:14;-0.40;99.90
11664;DHT22;72375;59.302;18.204;2023-12-28T07:48:02;0.20;99.90
11664;DHT22;72375;59.302;18.204;2023-12-28T07:50:47;-0.30;99.90
11664;DHT22;72375;59.302;18.204;2023-12-28T07:53:36;-0.30;99.90
11664;DHT22;72375;59.302;18.204;2023-12-28T07:56:21;-0.20;99.90
11664;DHT22;72375;59.302;18.204;2023-12-28T07:59:09;-0.20;99.90
11664;DHT22;72375;59.302;18.204;2023-12-28T08:01:54;-0.10;99.90
11664;DHT22;72375;59.302;18.204;2023-12-28T08:04:40;-0.10;99.90
11664;DHT22;72375;59.302;18.204;2023-12-28T08:07:26;-0.10;99.90
11664;DHT22;72375;59.302;18.204;2023-12-28T08:10:12;0.00;99.90
11664;DHT22;72375;59.302;18.204;2023-12-28T08:12:57;0.00;99.90
11664;DHT22;72375;59.302;18.204;2023-12-28T08:15:44;0.10;99.90
11664;DHT22;72375;59.302;18.204;2023-12-28T08:18:30;0.10;99.90
11664;DHT22;72375;59.302;18.204;2023-12-28T08:21:16;0.10;99.90
11664;DHT22;72375;59.302;18.204;2023-12-28T08:24:02;0.10;99.90
11664;DHT22;72375;59.302;18.204;2023-12-28T08:26:48;0.20;99.90
11664;DHT22;72375;59.302;18.204;2023-12-28T08:29:33;0.20;99.90
11664;DHT22;72375;59.302;18.204;2023-12-28T08:32:20;0.30;99.90
11664;DHT22;72375;59.302;18.204;2023-12-28T08:35:06;0.30;99.90
11664;DHT22;72375;59.302;18.204;2023-12-28T08:37:52;0.30;99.90
11664;DHT22;72375;59.302;18.204;2023-12-28T08:40:38;0.30;99.90
11664;DHT22;72375;59.302;18.204;2023-12-28T08:43:23;0.40;99.90
11664;DHT22;72375;59.302;18.204;2023-12-28T08:46:09;0.40;99.90
11664;DHT22;72375;59.302;18.204;2023-12-28T08:48:56;0.40;99.90
11664;DHT22;72375;59.302;18.204;2023-12-28T08:51:41;0.50;99.90
11664;DHT22;72375;59.302;18.204;2023-12-28T08:54:27;0.50;99.90
11664;DHT22;72375;59.302;18.204;2023-12-28T08:57:13;0.50;99.90
11664;DHT22;72375;59.302;18.204;2023-12-28T08:59:59;0.50;99.90
11664;DHT22;72375;59.302;18.204;2023-12-28T09:02:47;0.60;99.90
11664;DHT22;72375;59.302;18.204;2023-12-28T09:05:35;0.60;99.90
11664;DHT22;72375;59.302;18.204;2023-12-28T09:08:21;0.70;99.90
11664;DHT22;72375;59.302;18.204;2023-12-28T09:11:07;0.70;99.90
11664;DHT22;72375;59.302;18.204;2023-12-28T09:13:52;1.00;99.90
11664;DHT22;72375;59.302;18.204;2023-12-28T09:16:38;0.80;99.90
11664;DHT22;72375;59.302;18.204;2023-12-28T09:19:26;0.80;99.90
11664;DHT22;72375;59.302;18.204;2023-12-28T09:22:13;1.60;99.90
11664;DHT22;72375;59.302;18.204;2023-12-28T09:24:58;0.90;99.90
11664;DHT22;72375;59.302;18.204;2023-12-28T09:27:44;1.00;99.90
11664;DHT22;72375;59.302;18.204;2023-12-28T09:30:29;1.00;99.90
11664;DHT22;72375;59.302;18.204;2023-12-28T09:33:15;1.10;99.90
11664;DHT22;72375;59.302;18.204;2023-12-28T09:36:03;1.10;99.90
11664;DHT22;72375;59.302;18.204;2023-12-28T09:38:50;1.10;99.90
11664;DHT22;72375;59.302;18.204;2023-12-28T09:41:39;1.20;99.90
11664;DHT22;72375;59.302;18.204;2023-12-28T09:44:25;1.20;99.90
11664;DHT22;72375;59.302;18.204;2023-12-28T09:47:11;1.20;99.90
11664;DHT22;72375;59.302;18.204;2023-12-28T09:49:59;1.30;99.90
11664;DHT22;72375;59.302;18.204;2023-12-28T09:52:44;1.50;99.90
11664;DHT22;72375;59.302;18.204;2023-12-28T09:55:31;1.40;99.90
11664;DHT22;72375;59.302;18.204;2023-12-28T09:58:18;1.40;99.90
11664;DHT22;72375;59.302;18.204;2023-12-28T10:01:05;1.50;99.90
11664;DHT22;72375;59.302;18.204;2023-12-28T10:03:51;1.50;99.90
11664;DHT22;72375;59.302;18.204;2023-12-28T10:06:37;1.50;99.90
11664;DHT22;72375;59.302;18.204;2023-12-28T10:09:23;1.60;99.90
11664;DHT22;72375;59.302;18.204;2023-12-28T10:12:10;1.60;99.90
11664;DHT22;72375;59.302;18.204;2023-12-28T10:14:55;1.80;99.90
11664;DHT22;72375;59.302;18.204;2023-12-28T10:17:42;1.60;99.90
11664;DHT22;72375;59.302;18.204;2023-12-28T10:20:28;1.70;99.90
11664;DHT22;72375;59.302;18.204;2023-12-28T10:23:14;2.00;99.90
11664;DHT22;72375;59.302;18.204;2023-12-28T10:25:59;1.70;99.90
11664;DHT22;72375;59.302;18.204;2023-12-28T10:28:46;1.80;99.90
11664;DHT22;72375;59.302;18.204;2023-12-28T10:31:32;1.80;99.90
11664;DHT22;72375;59.302;18.204;2023-12-28T10:34:18;1.80;99.90
11664;DHT22;72375;59.302;18.204;2023-12-28T10:37:04;1.90;99.90
11664;DHT22;72375;59.302;18.204;2023-12-28T10:39:53;1.90;99.90
11664;DHT22;72375;59.302;18.204;2023-12-28T10:42:46;2.00;99.90
11664;DHT22;72375;59.302;18.204;2023-12-28T10:45:38;2.10;99.90
11664;DHT22;72375;59.302;18.204;2023-12-28T10:48:29;2.10;99.90
11664;DHT22;72375;59.302;18.204;2023-12-28T10:51:21;2.60;99.90
11664;DHT22;72375;59.302;18.204;2023-12-28T10:54:19;2.20;99.90
11664;DHT22;72375;59.302;18.204;2023-12-28T10:57:11;2.20;99.90
11664;DHT22;72375;59.302;18.204;2023-12-28T11:00:02;2.30;99.90
11664;DHT22;72375;59.302;18.204;2023-12-28T11:02:53;2.40;99.90
11664;DHT22;72375;59.302;18.204;2023-12-28T11:05:43;2.40;99.90
11664;DHT22;72375;59.302;18.204;2023-12-28T11:08:32;2.40;99.90
11664;DHT22;72375;59.302;18.204;2023-12-28T11:11:20;2.40;99.90
11664;DHT22;72375;59.302;18.204;2023-12-28T11:14:07;2.40;99.90
11664;DHT22;72375;59.302;18.204;2023-12-28T11:16:54;2.40;99.90
11664;DHT22;72375;59.302;18.204;2023-12-28T11:19:42;2.40;99.90
11664;DHT22;72375;59.302;18.204;2023-12-28T11:22:28;2.40;99.90
11664;DHT22;72375;59.302;18.204;2023-12-28T11:25:15;2.50;99.90
11664;DHT22;72375;59.302;18.204;2023-12-28T11:28:09;2.50;99.90
11664;DHT22;72375;59.302;18.204;2023-12-28T11:30:56;2.50;99.90
11664;DHT22;72375;59.302;18.204;2023-12-28T11:33:45;2.50;99.90
11664;DHT22;72375;59.302;18.204;2023-12-28T11:36:36;2.60;99.90
11664;DHT22;72375;59.302;18.204;2023-12-28T11:39:30;2.60;99.90
11664;DHT22;72375;59.302;18.204;2023-12-28T11:42:20;2.60;99.90
11664;DHT22;72375;59.302;18.204;2023-12-28T11:45:07;2.60;99.90
11664;DHT22;72375;59.302;18.204;2023-12-28T11:47:59;2.60;99.90
11664;DHT22;72375;59.302;18.204;2023-12-28T11:50:45;2.60;99.90
11664;DHT22;72375;59.302;18.204;2023-12-28T11:53:32;2.60;99.90
11664;DHT22;72375;59.302;18.204;2023-12-28T11:56:19;2.60;99.90
11664;DHT22;72375;59.302;18.204;2023-12-28T11:59:05;2.70;99.90
11664;DHT22;72375;59.302;18.204;2023-12-28T12:01:53;2.70;99.90
11664;DHT22;72375;59.302;18.204;2023-12-28T12:04:39;2.70;99.90
11664;DHT22;72375;59.302;18.204;2023-12-28T12:07:24;2.70;99.90
11664;DHT22;72375;59.302;18.204;2023-12-28T12:10:15;2.70;99.90
11664;DHT22;72375;59.302;18.204;2023-12-28T12:13:00;2.70;99.90
11664;DHT22;72375;59.302;18.204;2023-12-28T12:15:50;2.70;99.90
11664;DHT22;72375;59.302;18.204;2023-12-28T12:18:36;2.80;99.90
11664;DHT22;72375;59.302;18.204;2023-12-28T12:21:23;2.70;99.90
11664;DHT22;72375;59.302;18.204;2023-12-28T12:24:09;3.20;99.90
11664;DHT22;72375;59.302;18.204;2023-12-28T12:26:57;2.80;99.90
11664;DHT22;72375;59.302;18.204;2023-12-28T12:29:46;2.80;99.90
11664;DHT22;72375;59.302;18.204;2023-12-28T12:32:32;2.80;99.90
11664;DHT22;72375;59.302;18.204;2023-12-28T12:35:18;2.80;99.90
11664;DHT22;72375;59.302;18.204;2023-12-28T12:38:06;3.00;99.90
11664;DHT22;72375;59.302;18.204;2023-12-28T12:40:52;2.80;99.90
11664;DHT22;72375;59.302;18.204;2023-12-28T12:43:40;2.90;99.90
11664;DHT22;72375;59.302;18.204;2023-12-28T12:46:26;2.90;99.90
11664;DHT22;72375;59.302;18.204;2023-12-28T12:49:12;2.90;99.90
11664;DHT22;72375;59.302;18.204;2023-12-28T12:51:58;3.00;99.90
11664;DHT22;72375;59.302;18.204;2023-12-28T12:54:43;2.90;99.90
11664;DHT22;72375;59.302;18.204;2023-12-28T12:57:37;2.90;99.90
11664;DHT22;72375;59.302;18.204;2023-12-28T13:00:25;2.90;99.90
11664;DHT22;72375;59.302;18.204;2023-12-28T13:03:10;3.00;99.90
11664;DHT22;72375;59.302;18.204;2023-12-28T13:05:56;3.00;99.90
11664;DHT22;72375;59.302;18.204;2023-12-28T13:08:42;3.00;99.90
11664;DHT22;72375;59.302;18.204;2023-12-28T13:11:28;3.00;99.90
11664;DHT22;72375;59.302;18.204;2023-12-28T13:14:13;3.00;99.90
11664;DHT22;72375;59.302;18.204;2023-12-28T13:17:00;3.00;99.90
11664;DHT22;72375;59.302;18.204;2023-12-28T13:19:46;3.00;99.90
11664;DHT22;72375;59.302;18.204;2023-12-28T13:22:31;3.20;99.90
11664;DHT22;72375;59.302;18.204;2023-12-28T13:25:17;3.10;99.90
11664;DHT22;72375;59.302;18.204;2023-12-28T13:28:03;3.10;99.90
11664;DHT22;72375;59.302;18.204;2023-12-28T13:30:49;3.10;99.90
11664;DHT22;72375;59.302;18.204;2023-12-28T13:33:37;3.10;99.90
11664;DHT22;72375;59.302;18.204;2023-12-28T13:36:22;3.10;99.90
11664;DHT22;72375;59.302;18.204;2023-12-28T13:39:08;3.10;99.90
11664;DHT22;72375;59.302;18.204;2023-12-28T13:41:55;3.20;99.90
11664;DHT22;72375;59.302;18.204;2023-12-28T13:44:41;3.30;99.90
11664;DHT22;72375;59.302;18.204;2023-12-28T13:47:27;3.20;99.90
11664;DHT22;72375;59.302;18.204;2023-12-28T13:50:15;3.20;99.90
11664;DHT22;72375;59.302;18.204;2023-12-28T13:53:00;3.20;99.90
11664;DHT22;72375;59.302;18.204;2023-12-28T13:55:46;3.20;99.90
11664;DHT22;72375;59.302;18.204;2023-12-28T13:58:32;3.20;99.90
11664;DHT22;72375;59.302;18.204;2023-12-28T14:01:18;3.20;99.90
11664;DHT22;72375;59.302;18.204;2023-12-28T14:04:04;3.30;99.90
11664;DHT22;72375;59.302;18.204;2023-12-28T14:06:51;3.30;99.90
11664;DHT22;72375;59.302;18.204;2023-12-28T14:09:36;3.30;99.90
11664;DHT22;72375;59.302;18.204;2023-12-28T14:12:22;3.30;99.90
11664;DHT22;72375;59.302;18.204;2023-12-28T14:15:08;3.60;99.90
11664;DHT22;72375;59.302;18.204;2023-12-28T14:17:54;3.30;99.90
11664;DHT22;72375;59.302;18.204;2023-12-28T14:20:40;3.30;99.90
11664;DHT22;72375;59.302;18.204;2023-12-28T14:23:27;3.30;99.90
11664;DHT22;72375;59.302;18.204;2023-12-28T14:26:14;3.30;99.90
11664;DHT22;72375;59.302;18.204;2023-12-28T14:29:00;3.30;99.90
11664;DHT22;72375;59.302;18.204;2023-12-28T14:31:49;3.40;99.90
11664;DHT22;72375;59.302;18.204;2023-12-28T14:34:35;3.40;99.90
11664;DHT22;72375;59.302;18.204;2023-12-28T14:37:21;3.40;99.90
11664;DHT22;72375;59.302;18.204;2023-12-28T14:40:09;3.40;99.90
11664;DHT22;72375;59.302;18.204;2023-12-28T14:42:55;3.40;99.90
11664;DHT22;72375;59.302;18.204;2023-12-28T14:45:41;3.40;99.90
11664;DHT22;72375;59.302;18.204;2023-12-28T14:48:26;3.90;99.90
11664;DHT22;72375;59.302;18.204;2023-12-28T14:51:13;3.50;99.90
11664;DHT22;72375;59.302;18.204;2023-12-28T14:53:59;3.50;99.90
11664;DHT22;72375;59.302;18.204;2023-12-28T14:56:46;3.50;99.90
11664;DHT22;72375;59.302;18.204;2023-12-28T14:59:31;3.50;99.90
11664;DHT22;72375;59.302;18.204;2023-12-28T15:02:17;3.50;99.90
11664;DHT22;72375;59.302;18.204;2023-12-28T15:05:04;3.60;99.90
11664;DHT22;72375;59.302;18.204;2023-12-28T15:07:50;3.50;99.90
11664;DHT22;72375;59.302;18.204;2023-12-28T15:10:35;3.60;99.90
11664;DHT22;72375;59.302;18.204;2023-12-28T15:13:23;3.60;99.90
11664;DHT22;72375;59.302;18.204;2023-12-28T15:16:10;4.00;99.90
11664;DHT22;72375;59.302;18.204;2023-12-28T15:18:56;3.60;99.90
11664;DHT22;72375;59.302;18.204;2023-12-28T15:21:42;3.60;99.90
11664;DHT22;72375;59.302;18.204;2023-12-28T15:24:28;3.60;99.90
11664;DHT22;72375;59.302;18.204;2023-12-28T15:27:13;3.60;99.90
11664;DHT22;72375;59.302;18.204;2023-12-28T15:30:00;3.60;99.90
11664;DHT22;72375;59.302;18.204;2023-12-28T15:32:46;3.60;99.90
11664;DHT22;72375;59.302;18.204;2023-12-28T15:35:32;3.70;99.90
11664;DHT22;72375;59.302;18.204;2023-12-28T15:38:17;3.70;99.90
11664;DHT22;72375;59.302;18.204;2023-12-28T15:41:03;3.70;99.90
11664;DHT22;72375;59.302;18.204;2023-12-28T15:43:49;3.70;99.90
11664;DHT22;72375;59.302;18.204;2023-12-28T15:46:36;3.70;99.90
11664;DHT22;72375;59.302;18.204;2023-12-28T15:49:22;3.70;99.90
11664;DHT22;72375;59.302;18.204;2023-12-28T15:52:07;3.70;99.90
11664;DHT22;72375;59.302;18.204;2023-12-28T15:54:53;3.70;99.90
11664;DHT22;72375;59.302;18.204;2023-12-28T15:57:39;3.60;99.90
11664;DHT22;72375;59.302;18.204;2023-12-28T16:00:25;3.70;99.90
11664;DHT22;72375;59.302;18.204;2023-12-28T16:03:12;3.80;99.90
11664;DHT22;72375;59.302;18.204;2023-12-28T16:05:58;3.80;99.90
11664;DHT22;72375;59.302;18.204;2023-12-28T16:08:43;3.80;99.90
11664;DHT22;72375;59.302;18.204;2023-12-28T16:11:29;3.80;99.90
11664;DHT22;72375;59.302;18.204;2023-12-28T16:14:15;3.80;99.90
11664;DHT22;72375;59.302;18.204;2023-12-28T16:17:02;3.80;99.90
11664;DHT22;72375;59.302;18.204;2023-12-28T16:19:49;3.80;99.90
11664;DHT22;72375;59.302;18.204;2023-12-28T16:22:36;3.80;99.90
11664;DHT22;72375;59.302;18.204;2023-12-28T16:25:21;3.80;99.90
11664;DHT22;72375;59.302;18.204;2023-12-28T16:28:07;3.80;99.90
11664;DHT22;72375;59.302;18.204;2023-12-28T16:30:53;3.80;99.90
11664;DHT22;72375;59.302;18.204;2023-12-28T16:33:38;3.80;99.90
11664;DHT22;72375;59.302;18.204;2023-12-28T16:36:26;3.80;99.90
11664;DHT22;72375;59.302;18.204;2023-12-28T16:39:12;3.80;99.90
11664;DHT22;72375;59.302;18.204;2023-12-28T16:41:57;3.80;99.90
11664;DHT22;72375;59.302;18.204;2023-12-28T16:44:43;4.10;99.90
11664;DHT22;72375;59.302;18.204;2023-12-28T16:47:29;3.80;99.90
11664;DHT22;72375;59.302;18.204;2023-12-28T16:50:16;3.90;99.90
11664;DHT22;72375;59.302;18.204;2023-12-28T16:53:03;3.80;99.90
11664;DHT22;72375;59.302;18.204;2023-12-28T16:55:49;3.90;99.90
11664;DHT22;72375;59.302;18.204;2023-12-28T16:58:35;3.90;99.90
11664;DHT22;72375;59.302;18.204;2023-12-28T17:01:21;3.90;99.90
11664;DHT22;72375;59.302;18.204;2023-12-28T17:04:06;3.90;99.90
11664;DHT22;72375;59.302;18.204;2023-12-28T17:06:52;3.90;99.90
11664;DHT22;72375;59.302;18.204;2023-12-28T17:09:39;3.90;99.90
11664;DHT22;72375;59.302;18.204;2023-12-28T17:12:28;3.90;99.90
11664;DHT22;72375;59.302;18.204;2023-12-28T17:15:16;3.90;99.90
11664;DHT22;72375;59.302;18.204;2023-12-28T17:18:02;3.90;99.90
11664;DHT22;72375;59.302;18.204;2023-12-28T17:20:48;4.00;99.90
11664;DHT22;72375;59.302;18.204;2023-12-28T17:23:36;4.00;99.90
11664;DHT22;72375;59.302;18.204;2023-12-28T17:26:26;4.00;99.90